sensor_id;sensor_type;location;lat;lon;timestamp;P1;durP1;ratioP1;P2;durP2;ratioP2
28714;SDS011;15886;49.170;14.572;2023-09-30T00:00:32;8.10;;;4.53;;
28714;SDS011;15886;49.170;14.572;2023-09-30T00:03:01;7.47;;;4.32;;
28714;SDS011;15886;49.170;14.572;2023-09-30T00:05:32;8.32;;;4.28;;
28714;SDS011;15886;49.170;14.572;2023-09-30T00:08:04;6.25;;;4.30;;
28714;SDS011;15886;49.170;14.572;2023-09-30T00:10:34;7.75;;;4.57;;
28714;SDS011;15886;49.170;14.572;2023-09-30T00:13:03;10.55;;;5.20;;
28714;SDS011;15886;49.170;14.572;2023-09-30T00:15:37;6.43;;;4.43;;
28714;SDS011;15886;49.170;14.572;2023-09-30T00:18:09;7.30;;;4.72;;
28714;SDS011;15886;49.170;14.572;2023-09-30T00:20:45;8.15;;;4.10;;
28714;SDS011;15886;49.170;14.572;2023-09-30T00:23:16;6.68;;;4.20;;
28714;SDS011;15886;49.170;14.572;2023-09-30T00:25:48;8.68;;;4.30;;
28714;SDS011;15886;49.170;14.572;2023-09-30T00:28:18;9.15;;;4.63;;
28714;SDS011;15886;49.170;14.572;2023-09-30T00:30:48;8.43;;;4.80;;
28714;SDS011;15886;49.170;14.572;2023-09-30T00:33:17;6.95;;;4.38;;
28714;SDS011;15886;49.170;14.572;2023-09-30T00:35:46;8.10;;;5.25;;
28714;SDS011;15886;49.170;14.572;2023-09-30T00:38:16;7.32;;;5.03;;
28714;SDS011;15886;49.170;14.572;2023-09-30T00:40:48;8.70;;;4.70;;
28714;SDS011;15886;49.170;14.572;2023-09-30T00:43:20;10.23;;;4.85;;
28714;SDS011;15886;49.170;14.572;2023-09-30T00:45:48;10.13;;;5.80;;
28714;SDS011;15886;49.170;14.572;2023-09-30T00:48:24;9.15;;;4.95;;
28714;SDS011;15886;49.170;14.572;2023-09-30T00:50:52;9.43;;;5.10;;
28714;SDS011;15886;49.170;14.572;2023-09-30T00:53:21;10.73;;;5.40;;
28714;SDS011;15886;49.170;14.572;2023-09-30T00:55:50;9.10;;;5.25;;
28714;SDS011;15886;49.170;14.572;2023-09-30T00:58:25;10.68;;;5.60;;
28714;SDS011;15886;49.170;14.572;2023-09-30T01:00:56;14.73;;;6.03;;
28714;SDS011;15886;49.170;14.572;2023-09-30T01:03:25;10.68;;;5.40;;
28714;SDS011;15886;49.170;14.572;2023-09-30T01:05:53;9.25;;;5.32;;
28714;SDS011;15886;49.170;14.572;2023-09-30T01:08:28;15.93;;;6.35;;
28714;SDS011;15886;49.170;14.572;2023-09-30T01:10:58;17.80;;;7.20;;
28714;SDS011;15886;49.170;14.572;2023-09-30T01:13:33;15.18;;;7.72;;
28714;SDS011;15886;49.170;14.572;2023-09-30T01:16:07;14.52;;;6.57;;
28714;SDS011;15886;49.170;14.572;2023-09-30T01:18:41;13.90;;;6.78;;
28714;SDS011;15886;49.170;14.572;2023-09-30T01:21:10;19.75;;;6.47;;
28714;SDS011;15886;49.170;14.572;2023-09-30T01:23:41;20.17;;;7.43;;
28714;SDS011;15886;49.170;14.572;2023-09-30T01:26:12;14.88;;;7.38;;
28714;SDS011;15886;49.170;14.572;2023-09-30T01:28:41;21.80;;;7.50;;
28714;SDS011;15886;49.170;14.572;2023-09-30T01:31:09;23.52;;;7.30;;
28714;SDS011;15886;49.170;14.572;2023-09-30T01:33:38;18.73;;;8.20;;
28714;SDS011;15886;49.170;14.572;2023-09-30T01:36:06;24.77;;;8.15;;
28714;SDS011;15886;49.170;14.572;2023-09-30T01:38:36;17.25;;;7.45;;
28714;SDS011;15886;49.170;14.572;2023-09-30T01:41:06;23.00;;;8.45;;
28714;SDS011;15886;49.170;14.572;2023-09-30T01:43:35;14.68;;;7.22;;
28714;SDS011;15886;49.170;14.572;2023-09-30T01:46:04;20.25;;;8.15;;
28714;SDS011;15886;49.170;14.572;2023-09-30T01:48:36;23.75;;;8.45;;
28714;SDS011;15886;49.170;14.572;2023-09-30T01:51:05;21.65;;;7.90;;
28714;SDS011;15886;49.170;14.572;2023-09-30T01:53:33;22.40;;;8.25;;
28714;SDS011;15886;49.170;14.572;2023-09-30T01:56:09;27.05;;;9.82;;
28714;SDS011;15886;49.170;14.572;2023-09-30T01:58:37;23.92;;;9.65;;
28714;SDS011;15886;49.170;14.572;2023-09-30T02:01:10;21.10;;;7.82;;
28714;SDS011;15886;49.170;14.572;2023-09-30T02:03:39;22.27;;;8.57;;
28714;SDS011;15886;49.170;14.572;2023-09-30T02:06:09;26.35;;;8.60;;
28714;SDS011;15886;49.170;14.572;2023-09-30T02:08:38;20.27;;;8.27;;
28714;SDS011;15886;49.170;14.572;2023-09-30T02:13:37;24.48;;;8.80;;
28714;SDS011;15886;49.170;14.572;2023-09-30T02:16:10;26.88;;;8.68;;
28714;SDS011;15886;49.170;14.572;2023-09-30T02:18:39;26.05;;;9.25;;
28714;SDS011;15886;49.170;14.572;2023-09-30T02:21:12;26.23;;;8.07;;
28714;SDS011;15886;49.170;14.572;2023-09-30T02:23:41;27.20;;;9.48;;
28714;SDS011;15886;49.170;14.572;2023-09-30T02:26:15;27.60;;;10.43;;
28714;SDS011;15886;49.170;14.572;2023-09-30T02:28:44;23.15;;;9.77;;
28714;SDS011;15886;49.170;14.572;2023-09-30T02:31:12;29.77;;;10.52;;
28714;SDS011;15886;49.170;14.572;2023-09-30T02:33:40;27.27;;;10.18;;
28714;SDS011;15886;49.170;14.572;2023-09-30T02:36:09;29.45;;;10.35;;
28714;SDS011;15886;49.170;14.572;2023-09-30T02:38:37;26.25;;;9.43;;
28714;SDS011;15886;49.170;14.572;2023-09-30T02:41:06;25.88;;;9.20;;
28714;SDS011;15886;49.170;14.572;2023-09-30T02:43:34;26.95;;;10.18;;
28714;SDS011;15886;49.170;14.572;2023-09-30T02:46:02;26.90;;;9.05;;
28714;SDS011;15886;49.170;14.572;2023-09-30T02:48:31;22.95;;;8.95;;
28714;SDS011;15886;49.170;14.572;2023-09-30T02:50:59;23.77;;;8.65;;
28714;SDS011;15886;49.170;14.572;2023-09-30T02:53:27;34.13;;;9.75;;
28714;SDS011;15886;49.170;14.572;2023-09-30T02:55:57;28.00;;;9.20;;
28714;SDS011;15886;49.170;14.572;2023-09-30T02:58:28;27.83;;;8.95;;
28714;SDS011;15886;49.170;14.572;2023-09-30T03:01:01;23.70;;;9.00;;
28714;SDS011;15886;49.170;14.572;2023-09-30T03:03:30;26.77;;;8.45;;
28714;SDS011;15886;49.170;14.572;2023-09-30T03:05:59;30.45;;;9.25;;
28714;SDS011;15886;49.170;14.572;2023-09-30T03:08:29;24.90;;;8.60;;
28714;SDS011;15886;49.170;14.572;2023-09-30T03:11:05;25.88;;;8.55;;
28714;SDS011;15886;49.170;14.572;2023-09-30T03:13:35;25.63;;;9.43;;
28714;SDS011;15886;49.170;14.572;2023-09-30T03:16:04;28.73;;;9.18;;
28714;SDS011;15886;49.170;14.572;2023-09-30T03:18:35;23.15;;;9.48;;
28714;SDS011;15886;49.170;14.572;2023-09-30T03:21:14;27.55;;;8.73;;
28714;SDS011;15886;49.170;14.572;2023-09-30T03:23:44;30.02;;;8.48;;
28714;SDS011;15886;49.170;14.572;2023-09-30T03:26:12;28.60;;;9.10;;
28714;SDS011;15886;49.170;14.572;2023-09-30T03:28:41;25.10;;;9.60;;
28714;SDS011;15886;49.170;14.572;2023-09-30T03:31:09;29.33;;;9.57;;
28714;SDS011;15886;49.170;14.572;2023-09-30T03:33:39;20.80;;;8.55;;
28714;SDS011;15886;49.170;14.572;2023-09-30T03:36:08;24.98;;;8.88;;
28714;SDS011;15886;49.170;14.572;2023-09-30T03:38:42;25.20;;;9.15;;
28714;SDS011;15886;49.170;14.572;2023-09-30T03:41:12;19.00;;;7.57;;
28714;SDS011;15886;49.170;14.572;2023-09-30T03:43:40;30.13;;;9.07;;
28714;SDS011;15886;49.170;14.572;2023-09-30T03:46:08;24.02;;;7.90;;
28714;SDS011;15886;49.170;14.572;2023-09-30T03:48:37;23.33;;;8.52;;
28714;SDS011;15886;49.170;14.572;2023-09-30T03:51:13;23.80;;;8.45;;
28714;SDS011;15886;49.170;14.572;2023-09-30T03:53:42;22.57;;;7.63;;
28714;SDS011;15886;49.170;14.572;2023-09-30T03:56:11;24.52;;;8.48;;
28714;SDS011;15886;49.170;14.572;2023-09-30T03:58:42;19.38;;;7.93;;
28714;SDS011;15886;49.170;14.572;2023-09-30T04:01:12;24.20;;;7.20;;
28714;SDS011;15886;49.170;14.572;2023-09-30T04:03:48;34.03;;;9.85;;
28714;SDS011;15886;49.170;14.572;2023-09-30T04:06:18;24.58;;;7.70;;
28714;SDS011;15886;49.170;14.572;2023-09-30T04:08:47;25.42;;;9.18;;
28714;SDS011;15886;49.170;14.572;2023-09-30T04:11:15;28.35;;;8.00;;
28714;SDS011;15886;49.170;14.572;2023-09-30T04:13:49;20.67;;;8.38;;
28714;SDS011;15886;49.170;14.572;2023-09-30T04:16:19;26.42;;;8.45;;
28714;SDS011;15886;49.170;14.572;2023-09-30T04:18:52;27.65;;;9.75;;
28714;SDS011;15886;49.170;14.572;2023-09-30T04:21:20;26.67;;;8.00;;
28714;SDS011;15886;49.170;14.572;2023-09-30T04:23:50;23.33;;;7.50;;
28714;SDS011;15886;49.170;14.572;2023-09-30T04:26:22;29.23;;;8.60;;
28714;SDS011;15886;49.170;14.572;2023-09-30T04:28:52;24.10;;;7.78;;
28714;SDS011;15886;49.170;14.572;2023-09-30T04:31:21;21.92;;;7.53;;
28714;SDS011;15886;49.170;14.572;2023-09-30T04:33:50;21.45;;;7.88;;
28714;SDS011;15886;49.170;14.572;2023-09-30T04:36:20;27.88;;;8.13;;
28714;SDS011;15886;49.170;14.572;2023-09-30T04:38:50;27.67;;;8.90;;
28714;SDS011;15886;49.170;14.572;2023-09-30T04:41:18;31.73;;;9.45;;
28714;SDS011;15886;49.170;14.572;2023-09-30T04:43:48;22.35;;;8.52;;
28714;SDS011;15886;49.170;14.572;2023-09-30T04:46:17;23.23;;;7.93;;
28714;SDS011;15886;49.170;14.572;2023-09-30T04:48:49;23.05;;;7.00;;
28714;SDS011;15886;49.170;14.572;2023-09-30T04:51:19;21.95;;;7.80;;
28714;SDS011;15886;49.170;14.572;2023-09-30T04:53:47;25.05;;;7.55;;
28714;SDS011;15886;49.170;14.572;2023-09-30T04:56:16;26.38;;;7.88;;
28714;SDS011;15886;49.170;14.572;2023-09-30T04:58:44;29.85;;;8.48;;
28714;SDS011;15886;49.170;14.572;2023-09-30T05:01:14;27.27;;;8.57;;
28714;SDS011;15886;49.170;14.572;2023-09-30T05:03:42;25.45;;;7.65;;
28714;SDS011;15886;49.170;14.572;2023-09-30T05:06:11;23.77;;;8.32;;
28714;SDS011;15886;49.170;14.572;2023-09-30T05:08:39;29.80;;;9.30;;
28714;SDS011;15886;49.170;14.572;2023-09-30T05:11:08;25.25;;;7.70;;
28714;SDS011;15886;49.170;14.572;2023-09-30T05:13:38;23.27;;;7.35;;
28714;SDS011;15886;49.170;14.572;2023-09-30T05:16:07;22.65;;;8.05;;
28714;SDS011;15886;49.170;14.572;2023-09-30T05:18:37;24.77;;;6.95;;
28714;SDS011;15886;49.170;14.572;2023-09-30T05:21:06;24.70;;;8.73;;
28714;SDS011;15886;49.170;14.572;2023-09-30T05:23:35;21.65;;;7.50;;
28714;SDS011;15886;49.170;14.572;2023-09-30T05:26:04;19.17;;;7.68;;
28714;SDS011;15886;49.170;14.572;2023-09-30T05:28:38;19.02;;;7.18;;
28714;SDS011;15886;49.170;14.572;2023-09-30T05:31:07;20.35;;;6.72;;
28714;SDS011;15886;49.170;14.572;2023-09-30T05:33:36;23.58;;;7.43;;
28714;SDS011;15886;49.170;14.572;2023-09-30T05:36:04;22.45;;;7.47;;
28714;SDS011;15886;49.170;14.572;2023-09-30T05:38:34;23.83;;;7.88;;
28714;SDS011;15886;49.170;14.572;2023-09-30T05:41:02;21.15;;;7.63;;
28714;SDS011;15886;49.170;14.572;2023-09-30T05:43:32;20.17;;;7.38;;
28714;SDS011;15886;49.170;14.572;2023-09-30T05:46:00;22.77;;;6.90;;
28714;SDS011;15886;49.170;14.572;2023-09-30T05:48:30;29.20;;;7.88;;
28714;SDS011;15886;49.170;14.572;2023-09-30T05:51:00;22.40;;;7.75;;
28714;SDS011;15886;49.170;14.572;2023-09-30T05:53:29;19.63;;;7.13;;
28714;SDS011;15886;49.170;14.572;2023-09-30T05:56:01;23.40;;;6.80;;
28714;SDS011;15886;49.170;14.572;2023-09-30T05:58:30;18.13;;;6.95;;
28714;SDS011;15886;49.170;14.572;2023-09-30T06:01:00;24.88;;;7.68;;
28714;SDS011;15886;49.170;14.572;2023-09-30T06:03:31;24.77;;;8.60;;
28714;SDS011;15886;49.170;14.572;2023-09-30T06:06:15;24.20;;;7.70;;
28714;SDS011;15886;49.170;14.572;2023-09-30T06:08:44;23.67;;;7.68;;
28714;SDS011;15886;49.170;14.572;2023-09-30T06:11:21;26.33;;;7.93;;
28714;SDS011;15886;49.170;14.572;2023-09-30T06:13:51;23.73;;;7.22;;
28714;SDS011;15886;49.170;14.572;2023-09-30T06:16:23;22.83;;;7.10;;
28714;SDS011;15886;49.170;14.572;2023-09-30T06:18:53;23.60;;;7.82;;
28714;SDS011;15886;49.170;14.572;2023-09-30T06:21:24;25.35;;;7.38;;
28714;SDS011;15886;49.170;14.572;2023-09-30T06:23:56;22.52;;;8.27;;
28714;SDS011;15886;49.170;14.572;2023-09-30T06:26:24;19.27;;;7.03;;
28714;SDS011;15886;49.170;14.572;2023-09-30T09:29:39;22.25;;;7.20;;
28714;SDS011;15886;49.170;14.572;2023-09-30T09:44:25;7.55;;;3.17;;
28714;SDS011;15886;49.170;14.572;2023-09-30T10:02:03;8.40;;;3.85;;
28714;SDS011;15886;49.170;14.572;2023-09-30T10:04:35;6.40;;;4.35;;
28714;SDS011;15886;49.170;14.572;2023-09-30T10:10:45;6.03;;;4.43;;
28714;SDS011;15886;49.170;14.572;2023-09-30T10:19:11;6.80;;;4.18;;
28714;SDS011;15886;49.170;14.572;2023-09-30T10:21:40;5.00;;;4.15;;
28714;SDS011;15886;49.170;14.572;2023-09-30T10:24:28;6.18;;;3.88;;
28714;SDS011;15886;49.170;14.572;2023-09-30T10:29:43;6.10;;;4.13;;
28714;SDS011;15886;49.170;14.572;2023-09-30T10:32:12;6.82;;;5.18;;
28714;SDS011;15886;49.170;14.572;2023-09-30T10:34:49;5.68;;;4.47;;
28714;SDS011;15886;49.170;14.572;2023-09-30T10:37:23;5.82;;;4.38;;
28714;SDS011;15886;49.170;14.572;2023-09-30T10:39:56;5.88;;;4.50;;
28714;SDS011;15886;49.170;14.572;2023-09-30T10:50:55;10.30;;;6.28;;
28714;SDS011;15886;49.170;14.572;2023-09-30T10:53:24;7.43;;;5.70;;
28714;SDS011;15886;49.170;14.572;2023-09-30T10:58:47;10.50;;;7.32;;
28714;SDS011;15886;49.170;14.572;2023-09-30T11:01:20;9.90;;;7.45;;
28714;SDS011;15886;49.170;14.572;2023-09-30T11:03:49;12.35;;;5.93;;
28714;SDS011;15886;49.170;14.572;2023-09-30T11:06:21;8.25;;;5.65;;
28714;SDS011;15886;49.170;14.572;2023-09-30T11:08:51;6.38;;;4.70;;
28714;SDS011;15886;49.170;14.572;2023-09-30T11:11:33;9.85;;;6.15;;
28714;SDS011;15886;49.170;14.572;2023-09-30T11:14:04;7.45;;;4.60;;
28714;SDS011;15886;49.170;14.572;2023-09-30T11:16:45;16.75;;;6.07;;
28714;SDS011;15886;49.170;14.572;2023-09-30T11:19:14;6.15;;;4.60;;
28714;SDS011;15886;49.170;14.572;2023-09-30T11:21:42;7.93;;;4.68;;
28714;SDS011;15886;49.170;14.572;2023-09-30T11:24:13;7.45;;;3.97;;
28714;SDS011;15886;49.170;14.572;2023-09-30T11:26:44;9.55;;;5.20;;
28714;SDS011;15886;49.170;14.572;2023-09-30T11:29:15;9.73;;;5.00;;
28714;SDS011;15886;49.170;14.572;2023-09-30T11:31:46;14.57;;;4.88;;
28714;SDS011;15886;49.170;14.572;2023-09-30T11:34:15;8.20;;;4.60;;
28714;SDS011;15886;49.170;14.572;2023-09-30T11:36:52;8.55;;;5.20;;
28714;SDS011;15886;49.170;14.572;2023-09-30T11:39:27;8.13;;;4.35;;
28714;SDS011;15886;49.170;14.572;2023-09-30T11:41:56;8.65;;;5.03;;
28714;SDS011;15886;49.170;14.572;2023-09-30T11:44:25;8.02;;;4.97;;
28714;SDS011;15886;49.170;14.572;2023-09-30T11:46:54;7.55;;;4.28;;
28714;SDS011;15886;49.170;14.572;2023-09-30T11:49:32;7.32;;;4.38;;
28714;SDS011;15886;49.170;14.572;2023-09-30T11:52:10;5.35;;;4.22;;
28714;SDS011;15886;49.170;14.572;2023-09-30T11:54:44;5.35;;;3.33;;
28714;SDS011;15886;49.170;14.572;2023-09-30T11:57:13;4.53;;;3.13;;
28714;SDS011;15886;49.170;14.572;2023-09-30T11:59:46;7.50;;;4.22;;
28714;SDS011;15886;49.170;14.572;2023-09-30T12:02:15;11.45;;;4.60;;
28714;SDS011;15886;49.170;14.572;2023-09-30T12:04:48;8.93;;;4.50;;
28714;SDS011;15886;49.170;14.572;2023-09-30T12:07:16;7.57;;;4.82;;
28714;SDS011;15886;49.170;14.572;2023-09-30T12:09:44;8.52;;;4.68;;
28714;SDS011;15886;49.170;14.572;2023-09-30T12:12:13;6.93;;;4.63;;
28714;SDS011;15886;49.170;14.572;2023-09-30T12:14:41;8.55;;;4.88;;
28714;SDS011;15886;49.170;14.572;2023-09-30T12:17:10;10.80;;;5.53;;
28714;SDS011;15886;49.170;14.572;2023-09-30T12:19:39;6.10;;;4.85;;
28714;SDS011;15886;49.170;14.572;2023-09-30T12:22:08;8.05;;;4.88;;
28714;SDS011;15886;49.170;14.572;2023-09-30T12:24:37;7.32;;;4.80;;
28714;SDS011;15886;49.170;14.572;2023-09-30T12:27:06;7.93;;;5.75;;
28714;SDS011;15886;49.170;14.572;2023-09-30T12:29:35;8.13;;;4.65;;
28714;SDS011;15886;49.170;14.572;2023-09-30T12:32:05;8.95;;;4.32;;
28714;SDS011;15886;49.170;14.572;2023-09-30T12:34:34;5.53;;;4.10;;
28714;SDS011;15886;49.170;14.572;2023-09-30T12:37:06;9.80;;;4.80;;
28714;SDS011;15886;49.170;14.572;2023-09-30T12:39:34;4.20;;;3.72;;
28714;SDS011;15886;49.170;14.572;2023-09-30T12:42:05;6.20;;;4.32;;
28714;SDS011;15886;49.170;14.572;2023-09-30T12:44:36;7.43;;;5.03;;
28714;SDS011;15886;49.170;14.572;2023-09-30T12:47:05;8.10;;;5.03;;
28714;SDS011;15886;49.170;14.572;2023-09-30T12:49:34;7.78;;;5.07;;
28714;SDS011;15886;49.170;14.572;2023-09-30T12:52:04;8.70;;;4.47;;
28714;SDS011;15886;49.170;14.572;2023-09-30T12:54:34;7.68;;;4.88;;
28714;SDS011;15886;49.170;14.572;2023-09-30T12:57:04;8.88;;;5.00;;
28714;SDS011;15886;49.170;14.572;2023-09-30T12:59:34;7.38;;;4.75;;
28714;SDS011;15886;49.170;14.572;2023-09-30T13:02:04;7.82;;;5.13;;
28714;SDS011;15886;49.170;14.572;2023-09-30T13:04:33;7.65;;;5.13;;
28714;SDS011;15886;49.170;14.572;2023-09-30T13:07:02;6.03;;;4.78;;
28714;SDS011;15886;49.170;14.572;2023-09-30T13:09:31;9.07;;;6.35;;
28714;SDS011;15886;49.170;14.572;2023-09-30T13:12:01;9.27;;;5.88;;
28714;SDS011;15886;49.170;14.572;2023-09-30T13:14:32;9.70;;;6.13;;
28714;SDS011;15886;49.170;14.572;2023-09-30T13:17:00;8.05;;;5.18;;
28714;SDS011;15886;49.170;14.572;2023-09-30T13:19:29;9.00;;;5.68;;
28714;SDS011;15886;49.170;14.572;2023-09-30T13:22:01;12.98;;;6.82;;
28714;SDS011;15886;49.170;14.572;2023-09-30T13:24:31;10.50;;;7.05;;
28714;SDS011;15886;49.170;14.572;2023-09-30T13:27:04;8.38;;;5.82;;
28714;SDS011;15886;49.170;14.572;2023-09-30T13:29:33;8.52;;;5.38;;
28714;SDS011;15886;49.170;14.572;2023-09-30T13:32:03;10.20;;;6.40;;
28714;SDS011;15886;49.170;14.572;2023-09-30T13:34:33;9.93;;;5.38;;
28714;SDS011;15886;49.170;14.572;2023-09-30T13:37:01;9.90;;;7.03;;
28714;SDS011;15886;49.170;14.572;2023-09-30T13:39:29;8.73;;;5.70;;
28714;SDS011;15886;49.170;14.572;2023-09-30T13:41:58;6.53;;;5.65;;
28714;SDS011;15886;49.170;14.572;2023-09-30T13:44:26;14.25;;;8.07;;
28714;SDS011;15886;49.170;14.572;2023-09-30T13:46:54;10.75;;;6.80;;
28714;SDS011;15886;49.170;14.572;2023-09-30T13:49:23;10.35;;;6.55;;
28714;SDS011;15886;49.170;14.572;2023-09-30T13:51:51;11.77;;;7.18;;
28714;SDS011;15886;49.170;14.572;2023-09-30T13:54:21;8.02;;;5.38;;
28714;SDS011;15886;49.170;14.572;2023-09-30T13:56:50;9.27;;;6.25;;
28714;SDS011;15886;49.170;14.572;2023-09-30T13:59:19;12.98;;;6.28;;
28714;SDS011;15886;49.170;14.572;2023-09-30T14:01:49;11.10;;;5.57;;
28714;SDS011;15886;49.170;14.572;2023-09-30T14:04:17;8.93;;;5.28;;
28714;SDS011;15886;49.170;14.572;2023-09-30T14:06:45;10.70;;;5.35;;
28714;SDS011;15886;49.170;14.572;2023-09-30T14:09:15;11.38;;;7.55;;
28714;SDS011;15886;49.170;14.572;2023-09-30T14:11:53;8.55;;;6.40;;
28714;SDS011;15886;49.170;14.572;2023-09-30T14:14:23;11.27;;;6.15;;
28714;SDS011;15886;49.170;14.572;2023-09-30T14:16:53;11.63;;;6.03;;
28714;SDS011;15886;49.170;14.572;2023-09-30T14:19:21;6.00;;;5.03;;
28714;SDS011;15886;49.170;14.572;2023-09-30T14:21:49;8.60;;;5.18;;
28714;SDS011;15886;49.170;14.572;2023-09-30T14:24:18;7.20;;;5.68;;
28714;SDS011;15886;49.170;14.572;2023-09-30T14:26:47;7.63;;;4.57;;
28714;SDS011;15886;49.170;14.572;2023-09-30T14:29:15;10.55;;;5.10;;
28714;SDS011;15886;49.170;14.572;2023-09-30T14:31:46;11.07;;;5.30;;
28714;SDS011;15886;49.170;14.572;2023-09-30T14:34:15;8.65;;;4.40;;
28714;SDS011;15886;49.170;14.572;2023-09-30T14:36:45;10.27;;;5.32;;
28714;SDS011;15886;49.170;14.572;2023-09-30T14:39:16;8.52;;;4.80;;
28714;SDS011;15886;49.170;14.572;2023-09-30T14:41:46;6.55;;;3.70;;
28714;SDS011;15886;49.170;14.572;2023-09-30T14:44:15;6.20;;;5.13;;
28714;SDS011;15886;49.170;14.572;2023-09-30T14:46:48;8.20;;;5.05;;
28714;SDS011;15886;49.170;14.572;2023-09-30T14:49:17;7.65;;;4.47;;
28714;SDS011;15886;49.170;14.572;2023-09-30T14:51:45;8.23;;;4.43;;
28714;SDS011;15886;49.170;14.572;2023-09-30T14:54:15;7.65;;;3.75;;
28714;SDS011;15886;49.170;14.572;2023-09-30T14:56:43;11.23;;;5.13;;
28714;SDS011;15886;49.170;14.572;2023-09-30T14:59:13;7.15;;;4.65;;
28714;SDS011;15886;49.170;14.572;2023-09-30T15:01:42;7.70;;;5.20;;
28714;SDS011;15886;49.170;14.572;2023-09-30T15:04:12;11.50;;;5.18;;
28714;SDS011;15886;49.170;14.572;2023-09-30T15:06:43;8.95;;;4.57;;
28714;SDS011;15886;49.170;14.572;2023-09-30T15:09:13;8.80;;;4.25;;
28714;SDS011;15886;49.170;14.572;2023-09-30T15:11:42;8.13;;;5.18;;
28714;SDS011;15886;49.170;14.572;2023-09-30T15:14:10;6.65;;;4.72;;
28714;SDS011;15886;49.170;14.572;2023-09-30T15:16:38;68.20;;;47.25;;
28714;SDS011;15886;49.170;14.572;2023-09-30T15:19:07;17.35;;;13.10;;
28714;SDS011;15886;49.170;14.572;2023-09-30T15:21:35;221.70;;;127.68;;
28714;SDS011;15886;49.170;14.572;2023-09-30T15:24:04;638.05;;;378.77;;
28714;SDS011;15886;49.170;14.572;2023-09-30T15:26:32;588.13;;;358.35;;
28714;SDS011;15886;49.170;14.572;2023-09-30T15:29:02;613.53;;;382.45;;
28714;SDS011;15886;49.170;14.572;2023-09-30T15:31:36;247.13;;;134.30;;
28714;SDS011;15886;49.170;14.572;2023-09-30T15:34:07;1217.28;;;659.58;;
28714;SDS011;15886;49.170;14.572;2023-09-30T15:36:36;446.05;;;255.82;;
28714;SDS011;15886;49.170;14.572;2023-09-30T15:39:05;313.10;;;164.13;;
28714;SDS011;15886;49.170;14.572;2023-09-30T15:41:34;470.00;;;265.48;;
28714;SDS011;15886;49.170;14.572;2023-09-30T15:44:04;323.48;;;176.00;;
28714;SDS011;15886;49.170;14.572;2023-09-30T15:46:33;137.55;;;80.97;;
28714;SDS011;15886;49.170;14.572;2023-09-30T15:49:02;14.32;;;10.18;;
28714;SDS011;15886;49.170;14.572;2023-09-30T15:51:33;10.45;;;5.47;;
28714;SDS011;15886;49.170;14.572;2023-09-30T15:54:04;7.65;;;4.85;;
28714;SDS011;15886;49.170;14.572;2023-09-30T15:56:34;5.43;;;3.95;;
28714;SDS011;15886;49.170;14.572;2023-09-30T15:59:08;10.77;;;5.38;;
28714;SDS011;15886;49.170;14.572;2023-09-30T16:01:36;8.77;;;4.22;;
28714;SDS011;15886;49.170;14.572;2023-09-30T16:04:06;8.13;;;5.68;;
28714;SDS011;15886;49.170;14.572;2023-09-30T16:06:35;7.85;;;4.70;;
28714;SDS011;15886;49.170;14.572;2023-09-30T16:09:05;9.05;;;5.03;;
28714;SDS011;15886;49.170;14.572;2023-09-30T16:11:33;5.78;;;3.97;;
28714;SDS011;15886;49.170;14.572;2023-09-30T16:14:05;6.32;;;3.95;;
28714;SDS011;15886;49.170;14.572;2023-09-30T16:16:35;7.07;;;4.35;;
28714;SDS011;15886;49.170;14.572;2023-09-30T16:19:05;9.20;;;4.85;;
28714;SDS011;15886;49.170;14.572;2023-09-30T16:21:36;7.70;;;4.57;;
28714;SDS011;15886;49.170;14.572;2023-09-30T16:24:05;6.78;;;4.25;;
28714;SDS011;15886;49.170;14.572;2023-09-30T16:26:34;7.90;;;4.47;;
28714;SDS011;15886;49.170;14.572;2023-09-30T16:29:04;10.30;;;4.70;;
28714;SDS011;15886;49.170;14.572;2023-09-30T16:31:32;5.95;;;4.07;;
28714;SDS011;15886;49.170;14.572;2023-09-30T16:34:00;6.85;;;4.25;;
28714;SDS011;15886;49.170;14.572;2023-09-30T16:36:28;10.50;;;5.30;;
28714;SDS011;15886;49.170;14.572;2023-09-30T16:38:57;8.48;;;4.55;;
28714;SDS011;15886;49.170;14.572;2023-09-30T16:41:25;12.82;;;4.97;;
28714;SDS011;15886;49.170;14.572;2023-09-30T16:43:55;7.95;;;4.10;;
28714;SDS011;15886;49.170;14.572;2023-09-30T16:46:25;9.80;;;5.35;;
28714;SDS011;15886;49.170;14.572;2023-09-30T16:48:54;8.63;;;5.78;;
28714;SDS011;15886;49.170;14.572;2023-09-30T16:51:32;8.80;;;5.22;;
28714;SDS011;15886;49.170;14.572;2023-09-30T16:54:02;10.13;;;5.65;;
28714;SDS011;15886;49.170;14.572;2023-09-30T16:56:32;13.10;;;5.00;;
28714;SDS011;15886;49.170;14.572;2023-09-30T16:59:00;6.70;;;4.20;;
28714;SDS011;15886;49.170;14.572;2023-09-30T17:01:29;7.32;;;5.07;;
28714;SDS011;15886;49.170;14.572;2023-09-30T17:03:57;9.93;;;6.18;;
28714;SDS011;15886;49.170;14.572;2023-09-30T17:06:27;10.48;;;5.65;;
28714;SDS011;15886;49.170;14.572;2023-09-30T17:08:56;15.43;;;6.28;;
28714;SDS011;15886;49.170;14.572;2023-09-30T17:11:28;9.75;;;5.20;;
28714;SDS011;15886;49.170;14.572;2023-09-30T17:13:57;9.48;;;4.53;;
28714;SDS011;15886;49.170;14.572;2023-09-30T17:16:25;10.65;;;5.30;;
28714;SDS011;15886;49.170;14.572;2023-09-30T17:18:54;7.38;;;4.07;;
28714;SDS011;15886;49.170;14.572;2023-09-30T17:21:22;9.20;;;4.07;;
28714;SDS011;15886;49.170;14.572;2023-09-30T17:23:51;11.93;;;4.88;;
28714;SDS011;15886;49.170;14.572;2023-09-30T17:26:19;5.82;;;4.00;;
28714;SDS011;15886;49.170;14.572;2023-09-30T17:28:50;8.75;;;4.38;;
28714;SDS011;15886;49.170;14.572;2023-09-30T17:31:18;6.05;;;4.03;;
28714;SDS011;15886;49.170;14.572;2023-09-30T17:33:47;7.22;;;4.63;;
28714;SDS011;15886;49.170;14.572;2023-09-30T17:36:19;7.03;;;3.70;;
28714;SDS011;15886;49.170;14.572;2023-09-30T17:38:49;6.70;;;3.92;;
28714;SDS011;15886;49.170;14.572;2023-09-30T17:41:18;5.15;;;3.65;;
28714;SDS011;15886;49.170;14.572;2023-09-30T17:43:47;7.30;;;4.32;;
28714;SDS011;15886;49.170;14.572;2023-09-30T17:46:16;4.97;;;3.38;;
28714;SDS011;15886;49.170;14.572;2023-09-30T17:48:47;7.63;;;3.90;;
28714;SDS011;15886;49.170;14.572;2023-09-30T17:51:16;6.55;;;3.95;;
28714;SDS011;15886;49.170;14.572;2023-09-30T17:53:48;9.48;;;4.32;;
28714;SDS011;15886;49.170;14.572;2023-09-30T17:56:17;5.25;;;3.45;;
28714;SDS011;15886;49.170;14.572;2023-09-30T17:58:46;7.70;;;4.07;;
28714;SDS011;15886;49.170;14.572;2023-09-30T18:01:15;5.53;;;3.78;;
28714;SDS011;15886;49.170;14.572;2023-09-30T18:03:47;9.93;;;3.88;;
28714;SDS011;15886;49.170;14.572;2023-09-30T18:06:16;13.20;;;3.75;;
28714;SDS011;15886;49.170;14.572;2023-09-30T18:08:45;6.82;;;3.33;;
28714;SDS011;15886;49.170;14.572;2023-09-30T18:11:14;7.50;;;3.72;;
28714;SDS011;15886;49.170;14.572;2023-09-30T18:13:45;5.40;;;3.25;;
28714;SDS011;15886;49.170;14.572;2023-09-30T18:16:15;6.97;;;4.38;;
28714;SDS011;15886;49.170;14.572;2023-09-30T18:18:43;9.15;;;3.83;;
28714;SDS011;15886;49.170;14.572;2023-09-30T18:21:12;6.35;;;3.70;;
28714;SDS011;15886;49.170;14.572;2023-09-30T18:23:41;7.00;;;4.05;;
28714;SDS011;15886;49.170;14.572;2023-09-30T18:26:10;6.65;;;4.07;;
28714;SDS011;15886;49.170;14.572;2023-09-30T18:28:38;6.07;;;3.75;;
28714;SDS011;15886;49.170;14.572;2023-09-30T18:31:07;9.07;;;3.63;;
28714;SDS011;15886;49.170;14.572;2023-09-30T18:33:35;7.45;;;4.15;;
28714;SDS011;15886;49.170;14.572;2023-09-30T18:36:06;5.68;;;3.90;;